Latest Coastal Weather Observations for Dum In Mirrie

IDD60701

Issued at 1:35 pm CST Friday 28 November 2014 (issued every 10 minutes, with the page automatically refreshed every 10 minutes)

About coastal observations | Map of coastal stations | Coastal observations for NT | Marine services | Other Formats
Station Details ID: 014277 Name: DUM IN MIRRIE AIRSTRIP Lat: -12.63 Lon: 130.37 Height: 3.5 m
Data from the previous 72 hours. | See also: Recent months at Dum In Mirrie
Date/Time
CST
Temp

°C
Wind Pressure Rain
since 9am
mm
Weather Cloud Vis
km
Sea
Height
m
Swell
Dir
 
Speed
knots
Gust
knots
hPa Trend Height
m
Period
s
Dir
28/01:30pm 26.2 S 6 13 1008.3 - 2.0 - - - - - - -
28/01:00pm 25.5 S 5 10 1008.8 - 2.0 - - - - - - -
28/12:30pm 25.1 S 5 9 1009.4 - 2.0 - - - - - - -
28/12:00pm 24.8 SSE 5 9 1009.5 - 2.0 Recent precip. - - - - - -
28/11:30am 24.6 SSE 4 9 1009.8 - 2.0 - - - - - - -
28/11:00am 24.3 S 5 10 1010.4 - 1.6 - - - - - - -
28/10:30am 24.2 S 7 13 1011.2 - 1.4 - - - - - - -
28/10:00am 25.0 SE 3 6 1011.1 - 1.2 - - - - - - -
28/09:30am 24.3 S 4 9 1011.0 - 0.8 - - - - - - -
28/09:00am 24.2 SSE 2 3 1010.7 - 22.4 Rain - - - - - -
28/08:30am 23.9 S 2 4 1010.4 - 21.8 - - - - - - -
28/08:00am 23.1 E 1 2 1010.0 - 21.4 - - - - - - -
28/07:30am 23.4 CALM 0 2 1009.7 - 21.4 - - - - - - -
28/07:00am 23.0 NNW 2 4 1009.0 - 21.4 - - - - - - -
28/06:30am 22.7 NNE 9 17 1009.8 - 19.6 - - - - - - -
28/06:00am 25.1 NE 11 16 1009.5 - 0.4 Rain - - - - - -
28/05:30am 26.1 N 10 13 1008.5 - 0.0 - - - - - - -
28/05:00am 27.2 S 3 6 1007.8 - 0.0 - - - - - - -
28/04:30am 26.5 CALM 0 0 1007.8 - 0.0 - - - - - - -
28/04:00am 26.5 W 1 3 1007.3 - 0.0 - - - - - - -
28/03:30am 27.0 CALM 0 0 1007.6 - 0.0 - - - - - - -
28/03:00am 27.3 CALM 0 0 1007.5 - 0.0 - - - - - - -
28/02:30am 27.7 CALM 0 0 1007.7 - 0.0 - - - - - - -
28/02:00am 27.8 WNW 2 4 1007.8 - 0.0 - - - - - - -
28/01:30am 28.0 CALM 0 0 1008.0 - 0.0 - - - - - - -
28/01:00am 27.9 NW 3 6 1008.3 - 0.0 - - - - - - -
28/12:30am 27.6 NNW 2 5 1008.8 - 0.0 - - - - - - -
28/12:00am 27.2 NNW 3 6 1009.1 - 0.0 - - - - - - -
 
Date/Time
CST
Temp

°C
Wind Pressure Rain
since 9am
mm
Weather Cloud Vis
km
Sea
Height
m
Swell
Dir
 
Speed
knots
Gust
knots
hPa Trend Height
m
Period
s
Dir
27/11:30pm 26.8 NNW 6 13 1008.9 - 0.0 - - - - - - -
27/11:00pm 28.6 WSW 2 6 1008.9 - 0.0 - - - - - - -
27/10:30pm 28.4 SSW 2 5 1008.8 - 0.0 - - - - - - -
27/10:00pm 28.1 SW 2 5 1008.7 - 0.0 - - - - - - -
27/09:30pm 28.0 SSW 3 5 1008.5 - 0.0 - - - - - - -
27/09:00pm 27.3 SSW 3 4 1008.2 - 0.0 - - - - - - -
27/08:30pm 27.6 S 2 4 1007.8 - 0.0 - - - - - - -
27/08:00pm 28.1 SW 4 6 1007.5 - 0.0 - - - - - - -
27/07:30pm 29.4 W 4 8 1007.2 - 0.0 - - - - - - -
27/07:00pm 29.5 SW 3 6 1007.0 - 0.0 - - - - - - -
27/06:30pm 29.9 WSW 4 9 1006.8 - 0.0 - - - - - - -
27/06:00pm 30.1 WSW 5 12 1006.7 - 0.0 - - - - - - -
27/05:30pm 30.8 W 5 7 1006.2 - 0.0 - - - - - - -
27/05:00pm 32.2 W 5 8 1006.0 - 0.0 - - - - - - -
27/04:30pm 32.8 W 4 7 1005.6 - 0.0 - - - - - - -
27/04:00pm 32.4 NNW 6 11 1005.6 - 0.0 - - - - - - -
27/03:30pm 32.4 NNW 6 9 1005.7 - 0.0 - - - - - - -
27/03:00pm 31.6 NNW 5 9 1006.1 - 0.0 - - - - - - -
27/02:30pm 32.2 N 7 10 1006.3 - 0.0 - - - - - - -
27/02:00pm 32.3 N 6 9 1006.6 - 0.0 - - - - - - -
27/01:30pm 32.4 NNW 6 13 1007.2 - 0.0 - - - - - - -
27/01:00pm 31.4 WNW 5 8 1007.8 - 0.0 - - - - - - -
27/12:30pm 31.2 W 5 7 1008.3 - 0.0 - - - - - - -
27/12:00pm 29.5 WSW 5 7 1008.6 - 0.0 - - - - - - -
27/11:30am 29.8 W 5 7 1009.0 - 0.0 - - - - - - -
27/11:00am 29.8 W 5 7 1009.4 - 0.0 - - - - - - -
27/10:30am 30.5 WSW 5 7 1009.7 - 0.0 - - - - - - -
27/10:00am 30.8 ENE 3 5 1009.9 - 0.0 - - - - - - -
27/09:30am 30.5 ENE 3 6 1009.9 - 0.0 - - - - - - -
27/09:00am 30.3 E 4 6 1009.7 - 20.8 - - - - - - -
27/08:30am 29.6 E 4 5 1009.6 - 20.8 - - - - - - -
27/08:00am 29.1 ENE 4 6 1009.1 - 20.8 - - - - - - -
27/07:30am 28.5 E 3 4 1008.9 - 20.8 - - - - - - -
27/07:00am 26.9 ENE 2 4 1008.2 - 20.8 - - - - - - -
27/06:30am 25.8 ENE 1 4 1007.9 - 20.8 - - - - - - -
27/06:00am 25.6 W 2 4 1007.5 - 20.8 Recent precip. - - - - - -
27/05:30am 28.0 CALM 0 0 1007.3 - 16.8 - - - - - - -
27/05:00am 28.3 NE 2 3 1007.1 - 16.8 - - - - - - -
27/04:30am 28.6 N 2 4 1006.9 - 16.8 - - - - - - -
27/04:00am 28.5 N 1 3 1006.7 - 16.8 - - - - - - -
27/03:30am 28.5 NNE 3 5 1006.7 - 16.8 - - - - - - -
27/03:00am 28.4 NNE 4 7 1006.7 - 16.8 - - - - - - -
27/02:30am 28.4 N 3 6 1006.9 - 16.8 - - - - - - -
27/02:00am 28.6 N 3 6 1007.1 - 16.8 - - - - - - -
27/01:30am 28.4 N 3 6 1007.4 - 16.8 - - - - - - -
27/01:00am 28.3 N 3 5 1007.7 - 16.8 - - - - - - -
27/12:30am 28.1 N 2 4 1007.9 - 16.8 - - - - - - -
27/12:00am 28.1 N 2 4 1008.2 - 16.8 - - - - - - -
 
Date/Time
CST
Temp

°C
Wind Pressure Rain
since 9am
mm
Weather Cloud Vis
km
Sea
Height
m
Swell
Dir
 
Speed
knots
Gust
knots
hPa Trend Height
m
Period
s
Dir
26/11:30pm 28.2 N 1 4 1008.3 - 16.8 - - - - - - -
26/11:00pm 28.4 N 2 4 1008.3 - 16.8 - - - - - - -
26/10:30pm 28.5 N 2 4 1008.2 - 16.8 - - - - - - -
26/10:00pm 28.6 NNW 3 5 1007.8 - 16.8 - - - - - - -
26/09:30pm 28.9 NNW 4 7 1007.5 - 16.8 - - - - - - -
26/09:00pm 28.7 NNW 5 8 1007.2 - 16.8 - - - - - - -
26/08:30pm 28.8 NNW 4 9 1007.2 - 16.8 - - - - - - -
26/08:00pm 29.1 N 4 8 1006.7 - 16.8 - - - - - - -
26/07:30pm 29.0 NNW 3 5 1006.2 - 16.8 - - - - - - -
26/07:00pm 28.7 N 2 4 1005.5 - 16.8 - - - - - - -
26/06:30pm 29.4 NW 2 3 1005.2 - 16.8 - - - - - - -
26/06:00pm 29.7 N 2 4 1005.0 - 16.8 - - - - - - -
26/05:30pm 29.7 NNW 2 4 1004.8 - 16.8 - - - - - - -
26/05:00pm 29.1 NNW 2 4 1004.9 - 16.8 - - - - - - -
26/04:30pm 27.9 N 3 6 1005.1 - 16.8 - - - - - - -
26/04:00pm 25.6 NNW 5 12 1005.2 - 16.4 - - - - - - -
26/03:30pm 28.9 E 10 16 1005.7 - 0.0 - - - - - - -
26/03:00pm 32.5 NW 5 9 1005.3 - 0.0 - - - - - - -
26/02:30pm 32.8 NW 5 10 1005.7 - 0.0 - - - - - - -
26/02:00pm 33.4 W 5 9 1005.9 - 0.0 - - - - - - -
26/01:30pm 33.0 WNW 5 8 1006.4 - 0.0 - - - - - - -
26/01:00pm 32.7 N 4 9 1006.7 - 0.0 - - - - - - -
26/12:30pm 30.4 ENE 5 8 1007.3 - 0.0 - - - - - - -
26/12:00pm 31.2 ENE 7 10 1007.6 - 0.0 - - - - - - -
26/11:30am 32.9 NE 4 8 1007.9 - 0.0 - - - - - - -
26/11:00am 31.5 E 5 7 1008.3 - 0.0 - - - - - - -
26/10:30am 30.8 E 5 9 1008.5 - 0.0 - - - - - - -
26/10:00am 30.6 NE 5 8 1008.4 - 0.0 - - - - - - -
26/09:30am 30.5 E 5 8 1008.6 - 0.0 - - - - - - -
26/09:00am 29.8 ESE 5 8 1008.8 - 0.0 - - - - - - -
26/08:30am 29.8 E 4 8 1008.4 - 0.0 - - - - - - -
26/08:00am 28.5 ENE 4 7 1008.0 - 0.0 - - - - - - -
26/07:30am 28.3 ENE 4 7 1007.5 - 0.0 - - - - - - -
26/07:00am 27.4 ENE 4 7 1007.3 - 0.0 - - - - - - -
26/06:30am 26.9 ENE 4 6 1006.8 - 0.0 - - - - - - -
26/06:00am 26.8 ENE 4 6 1006.5 - 0.0 - - - - - - -
26/05:30am 26.8 E 4 7 1006.2 - 0.0 - - - - - - -
26/05:00am 26.9 ESE 5 8 1005.9 - 0.0 - - - - - - -
26/04:30am 27.1 ESE 6 9 1005.7 - 0.0 - - - - - - -
26/04:00am 27.2 E 5 8 1005.7 - 0.0 - - - - - - -
26/03:30am 27.4 ESE 6 8 1006.1 - 0.0 - - - - - - -
26/03:00am 27.2 ESE 2 10 1006.6 - 0.0 - - - - - - -
26/02:30am 27.4 SE 3 6 1006.7 - 0.0 - - - - - - -
26/02:00am 27.5 ESE 3 5 1006.4 - 0.0 - - - - - - -
26/01:30am 27.6 ESE 4 8 1006.5 - 0.0 - - - - - - -
26/01:00am 27.6 E 3 5 1006.8 - 0.0 - - - - - - -
26/12:30am 27.7 ESE 4 6 1007.3 - 0.0 - - - - - - -
26/12:00am 27.6 E 2 4 1007.5 - 0.0 - - - - - - -
 
Date/Time
CST
Temp

°C
Wind Pressure Rain
since 9am
mm
Weather Cloud Vis
km
Sea
Height
m
Swell
Dir
 
Speed
knots
Gust
knots
hPa Trend Height
m
Period
s
Dir
25/11:30pm 27.8 E 2 4 1007.9 - 0.0 - - - - - - -
25/11:00pm 27.8 SE 3 5 1008.0 - 0.0 - - - - - - -
25/10:30pm 27.9 SE 3 4 1007.9 - 0.0 - - - - - - -
25/10:00pm 27.8 SSE 3 6 1007.6 - 0.0 - - - - - - -
25/09:30pm 28.1 SSE 3 5 1007.3 - 0.0 - - - - - - -
25/09:00pm 28.7 S 3 6 1007.1 - 0.0 - - - - - - -
25/08:30pm 29.3 SSW 2 4 1007.3 - 0.0 - - - - - - -
25/08:00pm 29.3 SW 2 4 1007.1 - 0.0 - - - - - - -
25/07:30pm 29.2 WSW 2 4 1006.4 - 0.0 - - - - - - -
25/07:00pm 29.3 SW 2 3 1006.2 - 0.0 - - - - - - -
25/06:30pm 29.4 SW 3 5 1005.8 - 0.0 - - - - - - -
25/06:00pm 30.3 WSW 3 4 1005.6 - 0.0 - - - - - - -
25/05:30pm 30.7 WSW 3 8 1005.6 - 0.0 - - - - - - -
25/05:00pm 31.3 WSW 3 6 1005.7 - 0.0 - - - - - - -
25/04:30pm 31.3 SW 4 9 1006.1 - 0.0 - - - - - - -
25/04:00pm 31.1 SW 7 11 1005.7 - 0.0 - - - - - - -
25/03:30pm 30.9 SW 5 9 1006.4 - 0.0 - - - - - - -
25/03:00pm 30.9 SW 4 8 1006.7 - 0.0 - - - - - - -
25/02:30pm 32.0 SW 6 10 1006.6 - 0.0 - - - - - - -
25/02:00pm 32.4 WSW 5 8 1006.5 - 0.0 - - - - - - -

Other Formats:

Comma delimited format used in spreadsheet applications
http://www.bom.gov.au/fwo/IDD60701/IDD60701.94116.axf

JavaScript Object Notation format (JSON) in row-major order
http://www.bom.gov.au/fwo/IDD60701/IDD60701.94116.json